Time;durP1;ratioP1;P1;durP2;ratioP2;P2;SDS_P1;SDS_P2;PMS_P1;PMS_P2;Temp;Humidity;BMP_temperature;BMP_pressure;BME280_temperature;BME280_humidity;BME280_pressure;Samples;Min_cycle;Max_cycle;Signal;HPM_P1;HPM_P2
2022/04/24 00:00:11;;;;;;;19.80;10.93;;;14.50;99.90;;;;;;5057517;28;20628;-79
2022/04/24 00:02:39;;;;;;;12.93;9.20;;;14.50;99.90;;;;;;5056646;28;20455;-79
2022/04/24 00:05:08;;;;;;;13.30;9.57;;;14.50;99.90;;;;;;5058207;28;20446;-78
2022/04/24 00:07:38;;;;;;;11.33;8.43;;;14.40;99.90;;;;;;5060899;28;20997;-78
2022/04/24 00:10:06;;;;;;;14.00;9.47;;;14.50;99.90;;;;;;5058453;28;20450;-78
2022/04/24 00:12:35;;;;;;;11.03;8.27;;;14.40;99.90;;;;;;5062615;28;20453;-78
2022/04/24 00:15:03;;;;;;;11.50;7.90;;;14.40;99.90;;;;;;5064631;28;20461;-77
2022/04/24 00:17:31;;;;;;;11.97;8.40;;;14.40;99.90;;;;;;5062269;28;20472;-78
2022/04/24 00:19:59;;;;;;;9.33;7.50;;;14.40;99.90;;;;;;5066803;28;20454;-79
2022/04/24 00:22:30;;;;;;;10.90;8.40;;;14.30;99.90;;;;;;5066909;28;20447;-79
2022/04/24 00:25:00;;;;;;;12.53;8.33;;;14.30;99.90;;;;;;5064664;28;20458;-79
2022/04/24 00:27:28;;;;;;;11.87;7.90;;;14.30;99.90;;;;;;5066175;28;20481;-78
2022/04/24 00:29:57;;;;;;;11.87;8.73;;;14.40;99.90;;;;;;5066220;28;20531;-78
2022/04/24 00:32:25;;;;;;;8.23;7.43;;;14.40;99.90;;;;;;5060191;28;20450;-77
2022/04/24 00:34:53;;;;;;;11.00;8.23;;;14.40;99.90;;;;;;5065091;28;20441;-77
2022/04/24 00:37:21;;;;;;;13.70;8.57;;;14.40;99.90;;;;;;5069224;28;20477;-78
2022/04/24 00:39:49;;;;;;;11.13;7.50;;;14.40;99.90;;;;;;5067341;28;20461;-78
2022/04/24 00:42:19;;;;;;;10.70;8.20;;;14.30;99.90;;;;;;5056124;28;20498;-78
2022/04/24 00:44:47;;;;;;;9.70;7.10;;;14.30;99.90;;;;;;5062747;28;20449;-78
2022/04/24 00:47:17;;;;;;;10.23;7.27;;;14.30;99.90;;;;;;5060551;28;20463;-78
2022/04/24 00:49:46;;;;;;;11.37;8.07;;;14.20;99.90;;;;;;5064831;28;20457;-79
2022/04/24 00:52:15;;;;;;;9.40;7.40;;;14.20;99.90;;;;;;5061452;28;20478;-78
2022/04/24 00:54:43;;;;;;;9.80;7.23;;;14.20;99.90;;;;;;5060832;28;20464;-78
2022/04/24 00:57:12;;;;;;;10.13;7.13;;;14.20;99.90;;;;;;5059394;28;20454;-80
2022/04/24 00:59:42;;;;;;;9.03;6.90;;;14.20;99.90;;;;;;5067098;28;20919;-77
2022/04/24 01:02:10;;;;;;;11.90;8.80;;;14.20;99.90;;;;;;5060184;28;20501;-78
2022/04/24 01:04:40;;;;;;;11.77;7.73;;;14.20;99.90;;;;;;5060570;28;21260;-79
2022/04/24 01:07:10;;;;;;;11.87;8.57;;;14.30;99.90;;;;;;5060583;28;22358;-78
2022/04/24 01:09:38;;;;;;;10.33;7.83;;;14.30;99.90;;;;;;5062939;28;21125;-78
2022/04/24 01:12:08;;;;;;;7.90;6.97;;;14.30;99.90;;;;;;5062345;28;20446;-78
2022/04/24 01:14:36;;;;;;;10.80;7.90;;;14.20;99.90;;;;;;5063120;28;20458;-79
2022/04/24 01:17:07;;;;;;;10.50;7.90;;;14.20;99.90;;;;;;5060685;28;20473;-78
2022/04/24 01:19:36;;;;;;;9.00;7.70;;;14.20;99.90;;;;;;5063729;28;20457;-77
2022/04/24 01:22:05;;;;;;;9.30;8.23;;;14.20;99.90;;;;;;5058256;28;20482;-78
2022/04/24 01:24:34;;;;;;;8.47;6.33;;;14.20;99.90;;;;;;5061911;28;21495;-77
2022/04/24 01:27:02;;;;;;;8.97;7.13;;;14.20;99.90;;;;;;5064592;28;20463;-78
2022/04/24 01:29:30;;;;;;;10.27;7.57;;;14.10;99.90;;;;;;5058641;28;20464;-78
2022/04/24 01:31:58;;;;;;;8.97;8.07;;;14.20;99.90;;;;;;5061333;28;20456;-78
2022/04/24 01:34:26;;;;;;;9.30;7.47;;;14.20;99.90;;;;;;5064892;28;20494;-79
2022/04/24 01:36:55;;;;;;;12.50;7.50;;;14.20;99.90;;;;;;5063070;28;20461;-77
2022/04/24 01:39:24;;;;;;;10.30;7.83;;;14.20;99.90;;;;;;5065220;28;20473;-78
2022/04/24 01:41:54;;;;;;;8.27;7.47;;;14.20;99.90;;;;;;5067630;28;20476;-78
2022/04/24 01:44:22;;;;;;;10.80;7.30;;;14.20;99.90;;;;;;5060978;28;21022;-78
2022/04/24 01:46:50;;;;;;;9.50;6.93;;;14.30;99.90;;;;;;5062945;28;20461;-78
2022/04/24 01:49:19;;;;;;;13.27;8.37;;;14.30;99.90;;;;;;5061725;28;20477;-79
2022/04/24 01:51:48;;;;;;;11.80;8.00;;;14.30;99.90;;;;;;5065099;28;20453;-79
2022/04/24 01:54:16;;;;;;;13.07;10.50;;;14.20;99.90;;;;;;5062598;28;20525;-78
2022/04/24 01:56:46;;;;;;;14.43;8.90;;;13.90;99.90;;;;;;5060410;28;20449;-78
2022/04/24 01:59:14;;;;;;;12.63;9.10;;;13.50;99.90;;;;;;5059472;28;21125;-79
2022/04/24 02:01:42;;;;;;;10.50;8.23;;;13.50;99.90;;;;;;5066699;28;20537;-79
2022/04/24 02:04:11;;;;;;;13.20;9.07;;;13.60;99.90;;;;;;5060305;28;21205;-78
2022/04/24 02:06:39;;;;;;;15.50;9.67;;;13.80;99.90;;;;;;5064490;28;20453;-80
2022/04/24 02:09:07;;;;;;;12.20;9.00;;;13.90;99.90;;;;;;5064824;28;20484;-79
2022/04/24 02:11:35;;;;;;;12.20;9.40;;;14.00;99.90;;;;;;5064172;28;20456;-78
2022/04/24 02:14:05;;;;;;;10.17;8.47;;;14.00;99.90;;;;;;5063212;28;20809;-79
2022/04/24 02:16:33;;;;;;;12.37;9.23;;;14.00;99.90;;;;;;5060430;28;20465;-79
2022/04/24 02:19:01;;;;;;;12.60;9.30;;;14.00;99.90;;;;;;5062913;28;20537;-80
2022/04/24 02:21:29;;;;;;;15.10;8.90;;;14.00;99.90;;;;;;5064543;28;20474;-79
2022/04/24 02:23:57;;;;;;;13.67;9.33;;;14.00;99.90;;;;;;5065544;28;20471;-79
2022/04/24 02:26:26;;;;;;;12.10;9.10;;;14.00;99.90;;;;;;5058789;28;20458;-78
2022/04/24 02:28:54;;;;;;;10.67;8.73;;;14.00;99.90;;;;;;5063142;28;20480;-80
2022/04/24 02:31:23;;;;;;;12.53;9.17;;;14.10;99.90;;;;;;5065629;28;20477;-78
2022/04/24 02:33:52;;;;;;;14.53;9.23;;;14.10;99.90;;;;;;5070071;28;20449;-78
2022/04/24 02:36:20;;;;;;;10.13;9.13;;;14.10;99.90;;;;;;5071664;28;20949;-79
2022/04/24 02:38:48;;;;;;;13.60;8.63;;;14.10;99.90;;;;;;5067777;28;20478;-79
2022/04/24 02:41:16;;;;;;;11.73;8.70;;;14.10;99.90;;;;;;5059257;28;20458;-78
2022/04/24 02:43:44;;;;;;;14.13;9.30;;;14.10;99.90;;;;;;5062787;28;20450;-79
2022/04/24 02:46:13;;;;;;;12.23;9.70;;;14.10;99.90;;;;;;5063638;28;20498;-79
2022/04/24 02:48:42;;;;;;;10.17;8.43;;;14.10;99.90;;;;;;5062499;28;20570;-79
2022/04/24 02:51:11;;;;;;;11.70;9.40;;;14.10;99.90;;;;;;5059255;28;20452;-80
2022/04/24 02:53:39;;;;;;;15.20;9.97;;;14.10;99.90;;;;;;5060833;28;20464;-79
2022/04/24 02:56:08;;;;;;;10.23;8.40;;;14.10;99.90;;;;;;5066421;28;20475;-79
2022/04/24 02:58:38;;;;;;;17.23;9.93;;;14.00;99.90;;;;;;5060930;28;20465;-80
2022/04/24 03:01:06;;;;;;;12.60;9.80;;;14.00;99.90;;;;;;5072498;28;20443;-80
2022/04/24 03:03:34;;;;;;;14.07;9.30;;;14.00;99.90;;;;;;5056905;28;20554;-80
2022/04/24 03:06:04;;;;;;;11.43;9.43;;;14.00;99.90;;;;;;5058700;28;20442;-80
2022/04/24 03:08:33;;;;;;;13.37;10.37;;;14.00;99.90;;;;;;5060416;28;20473;-80
2022/04/24 03:11:01;;;;;;;12.10;9.10;;;14.00;99.90;;;;;;5065001;28;20456;-80
2022/04/24 03:13:29;;;;;;;9.73;8.17;;;13.90;99.90;;;;;;5064096;28;20449;-80
2022/04/24 03:15:57;;;;;;;12.97;9.50;;;13.90;99.90;;;;;;5066167;28;20458;-81
2022/04/24 03:18:26;;;;;;;10.53;8.73;;;13.80;99.90;;;;;;5064473;28;20472;-80
2022/04/24 03:20:54;;;;;;;13.13;10.07;;;13.80;99.90;;;;;;5058833;28;20821;-80
2022/04/24 03:23:24;;;;;;;12.90;9.87;;;13.80;99.90;;;;;;5061252;28;20659;-80
2022/04/24 03:25:52;;;;;;;12.83;9.10;;;13.70;99.90;;;;;;5061519;28;20448;-80
2022/04/24 03:28:20;;;;;;;14.90;10.80;;;13.70;99.90;;;;;;5063738;28;21029;-81
2022/04/24 03:30:49;;;;;;;12.53;9.93;;;13.80;99.90;;;;;;5061704;28;20463;-81
2022/04/24 03:33:16;;;;;;;14.37;9.83;;;14.00;99.90;;;;;;5093049;28;20545;-81
2022/04/24 03:35:44;;;;;;;11.70;8.23;;;13.80;99.90;;;;;;5062708;28;20473;-80
2022/04/24 03:38:12;;;;;;;14.40;10.80;;;13.80;99.90;;;;;;5064365;28;20478;-81
2022/04/24 03:40:42;;;;;;;11.40;9.77;;;13.80;99.90;;;;;;5059279;28;21003;-79
2022/04/24 03:43:10;;;;;;;11.87;10.10;;;13.80;99.90;;;;;;5066568;28;21032;-78
2022/04/24 03:45:38;;;;;;;17.50;11.00;;;13.80;99.90;;;;;;5060674;28;20457;-79
2022/04/24 03:48:07;;;;;;;13.20;9.80;;;13.80;99.90;;;;;;5062887;28;20575;-79
2022/04/24 03:50:35;;;;;;;12.30;9.30;;;13.80;99.90;;;;;;5062000;28;20552;-79
2022/04/24 03:53:03;;;;;;;12.43;9.33;;;13.90;1.00;;;;;;5064092;28;20438;-80
2022/04/24 03:55:31;;;;;;;13.57;9.57;;;13.90;1.00;;;;;;5061500;28;20510;-78
2022/04/24 03:58:01;;;;;;;13.70;9.50;;;13.90;1.00;;;;;;5053710;28;20474;-79
2022/04/24 04:00:29;;;;;;;16.23;11.00;;;13.90;1.00;;;;;;5060498;28;21214;-78
2022/04/24 04:02:57;;;;;;;14.37;10.27;;;14.00;1.00;;;;;;5059445;28;20472;-78
2022/04/24 04:05:26;;;;;;;12.00;10.27;;;13.90;1.00;;;;;;5060418;28;20477;-77
2022/04/24 04:07:54;;;;;;;13.47;10.07;;;13.90;1.00;;;;;;5059309;28;20473;-78
2022/04/24 04:10:23;;;;;;;13.83;10.03;;;13.90;1.00;;;;;;5065624;28;20518;-78
2022/04/24 04:12:51;;;;;;;14.20;10.50;;;13.80;1.00;;;;;;5064119;28;20451;-78
2022/04/24 04:15:20;;;;;;;14.97;10.90;;;13.80;1.00;;;;;;5059318;28;21209;-78
2022/04/24 04:17:48;;;;;;;14.90;11.10;;;13.70;1.00;;;;;;5054159;28;20473;-79
2022/04/24 04:20:17;;;;;;;16.47;11.23;;;13.50;17.10;;;;;;5059675;28;20449;-79
2022/04/24 04:22:48;;;;;;;12.20;8.73;;;13.30;99.90;;;;;;5063486;28;20476;-79
2022/04/24 04:25:17;;;;;;;6.43;4.37;;;12.70;99.90;;;;;;5058687;28;20451;-77
2022/04/24 04:27:45;;;;;;;4.20;2.60;;;11.70;1.00;;;;;;5054406;28;20476;-76
2022/04/24 04:30:13;;;;;;;3.63;2.30;;;11.10;63.30;;;;;;5057636;28;20990;-77
2022/04/24 04:32:43;;;;;;;2.23;1.87;;;11.10;99.90;;;;;;5062114;28;20454;-75
2022/04/24 04:35:11;;;;;;;1.70;1.10;;;11.10;99.90;;;;;;5060940;28;20440;-76
2022/04/24 04:37:40;;;;;;;1.40;0.80;;;10.80;11.20;;;;;;5062445;28;20482;-77
2022/04/24 04:40:10;;;;;;;0.90;0.73;;;10.90;1.00;;;;;;5055404;28;20461;-78
2022/04/24 04:42:39;;;;;;;1.90;0.70;;;11.00;1.00;;;;;;5068876;28;20970;-78
2022/04/24 04:45:08;;;;;;;2.23;0.80;;;10.90;99.90;;;;;;5062970;28;20451;-78
2022/04/24 04:47:36;;;;;;;0.50;0.50;;;11.00;99.90;;;;;;5058115;28;20479;-78
2022/04/24 04:50:06;;;;;;;0.40;0.40;;;10.90;99.90;;;;;;5065887;28;20500;-78
2022/04/24 04:52:35;;;;;;;0.40;0.40;;;11.10;1.00;;;;;;5060278;28;21056;-77
2022/04/24 04:55:05;;;;;;;1.10;0.60;;;10.90;1.00;;;;;;5061635;28;20486;-77
2022/04/24 04:57:34;;;;;;;1.30;0.50;;;10.80;1.00;;;;;;5063738;28;20469;-79
2022/04/24 05:00:05;;;;;;;0.77;0.40;;;11.00;1.00;;;;;;5063417;28;20803;-78
2022/04/24 05:02:36;;;;;;;0.40;0.40;;;10.60;1.00;;;;;;5064199;28;21249;-79
2022/04/24 05:05:08;;;;;;;0.40;0.40;;;10.40;1.00;;;;;;5067481;28;20470;-76
2022/04/24 05:07:36;;;;;;;0.60;0.60;;;10.50;99.90;;;;;;5069135;28;20465;-78
2022/04/24 05:10:06;;;;;;;0.40;0.40;;;10.30;99.90;;;;;;5068877;28;20452;-78
2022/04/24 05:12:35;;;;;;;0.63;0.40;;;10.40;1.00;;;;;;5063291;28;20581;-78
2022/04/24 05:15:04;;;;;;;0.40;0.40;;;10.70;13.50;;;;;;5065422;28;20489;-75
2022/04/24 05:17:34;;;;;;;0.57;0.37;;;10.30;99.90;;;;;;5067006;28;20480;-78
2022/04/24 05:20:02;;;;;;;0.40;0.40;;;10.40;99.90;;;;;;5065623;28;20459;-77
2022/04/24 05:22:32;;;;;;;0.30;0.30;;;10.50;99.90;;;;;;5066724;28;20459;-77
2022/04/24 05:25:00;;;;;;;0.30;0.30;;;10.00;1.00;;;;;;5068886;28;20547;-78
2022/04/24 05:27:29;;;;;;;0.50;0.50;;;10.30;99.90;;;;;;5061866;28;20497;-78
2022/04/24 05:29:58;;;;;;;0.30;0.30;;;10.30;1.00;;;;;;5065998;28;20524;-77
2022/04/24 05:32:26;;;;;;;0.37;0.33;;;10.40;1.00;;;;;;5060241;28;20864;-78
2022/04/24 05:34:54;;;;;;;0.40;0.40;;;10.00;1.00;;;;;;5060921;28;20960;-78
2022/04/24 05:37:22;;;;;;;0.30;0.30;;;10.10;1.00;;;;;;5062507;28;20464;-78
2022/04/24 05:39:51;;;;;;;0.73;0.30;;;10.20;99.90;;;;;;5063256;28;21023;-78
2022/04/24 05:42:20;;;;;;;1.63;0.40;;;10.10;1.00;;;;;;5065239;28;20536;-78
2022/04/24 05:44:48;;;;;;;0.30;0.30;;;10.00;99.90;;;;;;5057524;28;20481;-79
2022/04/24 05:47:16;;;;;;;0.87;0.40;;;10.20;1.00;;;;;;5059940;28;20570;-79
2022/04/24 05:49:44;;;;;;;1.23;0.40;;;10.50;99.90;;;;;;5062904;28;20466;-78
2022/04/24 05:52:12;;;;;;;0.40;0.40;;;10.60;1.00;;;;;;5063753;28;20470;-78
2022/04/24 05:54:40;;;;;;;0.37;0.37;;;10.40;44.00;;;;;;5061097;28;20453;-78
2022/04/24 05:57:10;;;;;;;0.40;0.40;;;10.40;99.90;;;;;;5062579;28;20477;-78
2022/04/24 05:59:38;;;;;;;0.30;0.30;;;10.50;1.00;;;;;;5062905;28;20637;-78
2022/04/24 06:02:07;;;;;;;0.50;0.50;;;10.50;1.00;;;;;;5061517;28;20454;-78
2022/04/24 06:04:35;;;;;;;0.60;0.40;;;10.10;99.90;;;;;;5059143;28;20479;-78
2022/04/24 06:07:04;;;;;;;0.40;0.40;;;10.30;99.90;;;;;;5062063;28;21047;-77
2022/04/24 06:09:32;;;;;;;0.30;0.30;;;10.40;1.00;;;;;;5063877;28;20456;-77
2022/04/24 06:12:01;;;;;;;0.80;0.40;;;10.40;1.00;;;;;;5062458;28;20466;-77
2022/04/24 06:14:30;;;;;;;0.40;0.40;;;10.50;1.00;;;;;;5059615;28;20867;-78
2022/04/24 06:17:00;;;;;;;2.00;0.43;;;10.50;1.00;;;;;;5064041;28;20456;-77
2022/04/24 06:19:29;;;;;;;0.40;0.40;;;10.60;99.90;;;;;;5065050;28;21255;-78
2022/04/24 06:21:57;;;;;;;0.30;0.30;;;10.40;99.90;;;;;;5063833;28;20474;-77
2022/04/24 06:24:25;;;;;;;0.47;0.40;;;10.60;99.90;;;;;;5063186;28;20475;-77
2022/04/24 06:26:53;;;;;;;0.30;0.30;;;10.70;99.90;;;;;;5062568;28;21177;-78
2022/04/24 06:29:27;;;;;;;0.40;0.40;;;11.10;43.40;;;;;;5063406;28;20806;-79
2022/04/24 06:31:56;;;;;;;0.57;0.50;;;11.30;99.90;;;;;;5064345;28;20467;-78
2022/04/24 06:34:24;;;;;;;0.50;0.50;;;11.40;1.00;;;;;;5064923;28;20972;-78
2022/04/24 06:36:52;;;;;;;0.50;0.50;;;11.50;1.00;;;;;;5063244;28;21042;-78
2022/04/24 06:39:21;;;;;;;1.50;0.97;;;11.60;1.00;;;;;;5061351;28;20469;-78
2022/04/24 06:41:49;;;;;;;0.40;0.40;;;11.60;1.00;;;;;;5061112;28;20517;-77
2022/04/24 06:44:17;;;;;;;0.30;0.30;;;11.50;1.00;;;;;;5060035;28;20487;-76
2022/04/24 06:46:46;;;;;;;0.37;0.37;;;11.40;1.00;;;;;;5067127;28;20970;-75
2022/04/24 06:49:16;;;;;;;0.40;0.40;;;11.00;99.90;;;;;;5067545;28;20466;-76
2022/04/24 06:51:44;;;;;;;1.80;0.40;;;11.20;99.90;;;;;;5061928;28;20507;-77
2022/04/24 06:54:12;;;;;;;0.40;0.40;;;11.40;8.10;;;;;;5062625;28;20519;-74
2022/04/24 06:56:41;;;;;;;0.43;0.43;;;11.50;1.00;;;;;;5060556;28;21259;-78
2022/04/24 06:59:09;;;;;;;0.50;0.43;;;11.50;19.00;;;;;;5056631;28;20482;-77
2022/04/24 07:01:37;;;;;;;2.60;0.80;;;11.50;1.00;;;;;;5063674;28;20963;-77
2022/04/24 07:04:05;;;;;;;0.60;0.60;;;11.60;1.00;;;;;;5063350;28;20505;-77
2022/04/24 07:06:36;;;;;;;0.40;0.40;;;11.50;1.00;;;;;;5056138;28;20499;-76
2022/04/24 07:09:04;;;;;;;0.40;0.40;;;11.40;1.00;;;;;;5061064;28;21112;-77
2022/04/24 07:11:33;;;;;;;0.40;0.40;;;11.40;99.90;;;;;;5064656;28;20465;-76
2022/04/24 07:14:02;;;;;;;0.43;0.40;;;11.30;99.90;;;;;;5061127;28;20457;-77
2022/04/24 07:16:30;;;;;;;1.27;0.47;;;11.30;99.90;;;;;;5056861;28;20439;-78
2022/04/24 07:18:58;;;;;;;0.40;0.40;;;11.20;99.90;;;;;;5061122;28;20586;-76
2022/04/24 07:21:26;;;;;;;0.40;0.40;;;11.10;99.90;;;;;;5059659;28;20521;-76
2022/04/24 07:23:56;;;;;;;0.40;0.40;;;11.20;99.90;;;;;;5057678;28;20470;-77
2022/04/24 07:26:25;;;;;;;0.40;0.40;;;11.20;99.90;;;;;;5066047;28;20469;-76
2022/04/24 07:28:53;;;;;;;0.40;0.40;;;11.60;99.90;;;;;;5066108;28;20478;-75
2022/04/24 07:31:21;;;;;;;0.40;0.40;;;11.40;99.90;;;;;;5066496;28;20450;-77
2022/04/24 07:33:49;;;;;;;0.40;0.40;;;11.50;40.90;;;;;;5062659;28;20445;-77
2022/04/24 07:36:17;;;;;;;0.30;0.30;;;11.60;1.00;;;;;;5067235;28;20610;-76
2022/04/24 07:38:46;;;;;;;0.40;0.40;;;11.60;1.00;;;;;;5068091;28;20477;-77
2022/04/24 07:41:15;;;;;;;0.30;0.30;;;11.60;1.00;;;;;;5066908;28;20446;-77
2022/04/24 07:43:48;;;;;;;0.40;0.40;;;11.40;1.00;;;;;;5056128;28;20451;-77
2022/04/24 07:46:16;;;;;;;0.40;0.40;;;11.60;1.00;;;;;;5068296;28;20470;-76
2022/04/24 07:48:44;;;;;;;0.40;0.40;;;11.80;1.00;;;;;;5066588;28;20543;-76
2022/04/24 07:51:13;;;;;;;0.50;0.50;;;11.90;1.00;;;;;;5068693;28;20451;-75
2022/04/24 07:53:42;;;;;;;0.47;0.47;;;12.10;1.00;;;;;;5066710;28;20463;-76
2022/04/24 07:56:10;;;;;;;0.30;0.30;;;12.10;1.00;;;;;;5057767;28;21206;-78
2022/04/24 07:58:45;;;;;;;0.40;0.40;;;12.10;1.00;;;;;;5088141;28;21673;-77
2022/04/24 08:01:16;;;;;;;0.37;0.37;;;11.90;1.00;;;;;;5058915;28;20487;-77
2022/04/24 08:03:45;;;;;;;0.70;0.70;;;11.90;1.00;;;;;;5058125;28;20488;-78
2022/04/24 08:06:15;;;;;;;0.67;0.50;;;11.90;1.00;;;;;;5062719;28;20479;-76
2022/04/24 08:08:44;;;;;;;0.50;0.50;;;11.80;1.00;;;;;;5060392;28;20536;-78
2022/04/24 08:11:12;;;;;;;0.63;0.50;;;11.80;1.00;;;;;;5063276;28;20461;-77
2022/04/24 08:13:40;;;;;;;0.43;0.40;;;11.70;1.00;;;;;;5056967;28;20455;-77
2022/04/24 08:16:10;;;;;;;0.67;0.50;;;11.70;39.90;;;;;;5064742;28;20462;-77
2022/04/24 08:18:38;;;;;;;0.50;0.50;;;11.80;35.60;;;;;;5059672;28;20475;-77
2022/04/24 08:21:07;;;;;;;0.80;0.60;;;11.70;99.90;;;;;;5059446;28;20442;-77
2022/04/24 08:23:35;;;;;;;0.80;0.77;;;11.60;99.90;;;;;;5058469;28;20457;-78
2022/04/24 08:26:03;;;;;;;0.53;0.50;;;11.70;99.90;;;;;;5062818;28;21203;-78
2022/04/24 08:28:31;;;;;;;1.63;0.50;;;11.80;99.90;;;;;;5057024;28;21009;-79
2022/04/24 08:30:59;;;;;;;1.13;0.63;;;12.00;19.40;;;;;;5060198;28;20450;-77
2022/04/24 08:33:29;;;;;;;0.60;0.60;;;11.80;98.90;;;;;;5060937;28;22059;-76
2022/04/24 08:35:58;;;;;;;0.90;0.70;;;11.60;99.90;;;;;;5062393;28;20467;-76
2022/04/24 08:38:26;;;;;;;0.77;0.60;;;11.70;99.90;;;;;;5064041;28;20888;-77
2022/04/24 08:40:56;;;;;;;0.40;0.40;;;11.60;99.90;;;;;;5070084;28;20481;-76
2022/04/24 08:43:25;;;;;;;0.50;0.50;;;11.60;99.90;;;;;;5062858;28;20550;-78
2022/04/24 08:45:54;;;;;;;0.50;0.50;;;11.70;99.90;;;;;;5059762;28;20487;-76
2022/04/24 08:48:22;;;;;;;0.53;0.53;;;11.40;1.00;;;;;;5065092;28;20534;-76
2022/04/24 08:50:55;;;;;;;0.50;0.50;;;11.50;1.00;;;;;;5062584;28;20554;-76
2022/04/24 08:53:28;;;;;;;1.00;0.70;;;11.40;1.00;;;;;;5062795;28;20463;-76
2022/04/24 08:55:56;;;;;;;0.60;0.60;;;11.60;1.00;;;;;;5062302;28;20454;-77
2022/04/24 08:58:25;;;;;;;0.50;0.50;;;11.70;99.90;;;;;;5066358;28;20465;-77
2022/04/24 09:00:53;;;;;;;0.40;0.40;;;11.90;99.90;;;;;;5063539;28;20450;-76
2022/04/24 09:03:21;;;;;;;0.60;0.50;;;11.90;99.90;;;;;;5066416;28;20554;-76
2022/04/24 09:05:49;;;;;;;0.47;0.47;;;11.80;99.90;;;;;;5058279;28;20569;-76
2022/04/24 09:08:24;;;;;;;0.43;0.43;;;11.80;99.90;;;;;;5063060;28;20482;-76
2022/04/24 09:11:13;;;;;;;0.50;0.50;;;11.90;99.90;;;;;;5055013;28;20471;-75
2022/04/24 09:16:34;;;;;;;0.50;0.50;;;11.60;62.80;;;;;;5064900;28;20461;-77
2022/04/24 09:19:04;;;;;;;0.40;0.40;;;11.80;1.00;;;;;;5070701;28;20771;-77
2022/04/24 09:21:32;;;;;;;2.90;1.70;;;11.80;1.00;;;;;;5064795;28;20935;-77
2022/04/24 09:24:02;;;;;;;0.47;0.47;;;11.70;1.00;;;;;;5067303;28;20443;-77
2022/04/24 09:26:30;;;;;;;0.87;0.40;;;11.50;45.50;;;;;;5066168;28;20478;-77
2022/04/24 09:29:14;;;;;;;0.60;0.60;;;11.50;1.00;;;;;;5063210;28;20478;-77
2022/04/24 09:31:46;;;;;;;0.70;0.50;;;11.30;99.90;;;;;;5065488;28;20972;-77
2022/04/24 09:34:16;;;;;;;0.50;0.50;;;11.20;1.00;;;;;;5066227;28;20447;-77
2022/04/24 09:36:44;;;;;;;0.43;0.43;;;11.10;99.90;;;;;;5062997;28;21103;-77
2022/04/24 09:39:14;;;;;;;1.07;0.70;;;11.10;99.90;;;;;;5060781;28;21041;-77
2022/04/24 09:41:42;;;;;;;0.53;0.53;;;11.30;1.00;;;;;;5067991;28;20479;-77
2022/04/24 09:44:14;;;;;;;1.07;0.60;;;11.20;99.90;;;;;;5061197;28;20526;-74
2022/04/24 09:46:43;;;;;;;0.60;0.60;;;11.30;29.50;;;;;;5065660;28;20451;-78
2022/04/24 09:49:11;;;;;;;0.67;0.60;;;11.40;1.00;;;;;;5069578;28;20469;-77
2022/04/24 09:51:42;;;;;;;0.50;0.50;;;11.60;99.90;;;;;;5063529;28;20474;-77
2022/04/24 09:54:11;;;;;;;0.53;0.53;;;11.60;99.90;;;;;;5061962;28;20581;-75
2022/04/24 09:56:43;;;;;;;1.10;0.60;;;11.60;99.90;;;;;;5072977;28;20454;-77
2022/04/24 09:59:13;;;;;;;0.50;0.50;;;11.70;99.90;;;;;;5057158;28;20687;-78
2022/04/24 10:01:42;;;;;;;0.60;0.60;;;11.90;1.00;;;;;;5067769;28;20455;-77
2022/04/24 10:04:11;;;;;;;0.70;0.60;;;11.70;99.90;;;;;;5066866;28;20446;-76
2022/04/24 10:06:42;;;;;;;1.50;0.50;;;11.80;99.90;;;;;;5063869;28;20483;-77
2022/04/24 10:09:13;;;;;;;0.80;0.60;;;11.60;99.90;;;;;;5062715;28;20462;-77
2022/04/24 10:11:43;;;;;;;0.80;0.70;;;11.70;59.90;;;;;;5069360;28;20516;-77
2022/04/24 10:14:15;;;;;;;0.50;0.50;;;11.60;99.90;;;;;;5064918;28;20508;-75
2022/04/24 10:17:07;;;;;;;0.50;0.50;;;11.30;99.90;;;;;;5062606;28;20465;-77
2022/04/24 10:19:56;;;;;;;0.60;0.60;;;11.20;1.00;;;;;;5059690;28;20455;-78
2022/04/24 10:22:35;;;;;;;0.60;0.60;;;11.30;1.00;;;;;;5055981;28;20512;-79
2022/04/24 10:25:05;;;;;;;0.70;0.60;;;11.50;99.90;;;;;;5059057;28;20474;-75
2022/04/24 10:27:42;;;;;;;1.47;0.67;;;11.70;1.00;;;;;;5062059;28;20489;-78
2022/04/24 10:30:13;;;;;;;0.60;0.60;;;11.70;1.00;;;;;;5061792;28;20446;-79
2022/04/24 10:32:45;;;;;;;1.23;0.90;;;12.00;99.90;;;;;;5060600;28;20481;-78
2022/04/24 10:35:18;;;;;;;0.60;0.50;;;11.90;99.90;;;;;;5059889;28;20453;-78
2022/04/24 10:37:48;;;;;;;0.73;0.73;;;11.80;99.90;;;;;;5063558;28;21007;-77
2022/04/24 10:40:18;;;;;;;0.70;0.60;;;11.90;1.00;;;;;;5064472;28;20468;-78
2022/04/24 10:42:48;;;;;;;0.80;0.80;;;12.00;99.90;;;;;;5056762;28;21166;-76
2022/04/24 10:45:20;;;;;;;1.30;1.07;;;11.90;99.90;;;;;;5061436;28;20439;-79
2022/04/24 10:48:03;;;;;;;0.87;0.87;;;12.00;99.90;;;;;;5066386;28;20499;-78
2022/04/24 10:50:31;;;;;;;1.30;0.70;;;12.00;99.90;;;;;;5061171;28;21244;-77
2022/04/24 10:53:10;;;;;;;0.97;0.80;;;12.10;1.00;;;;;;5061274;28;20459;-78
2022/04/24 10:55:39;;;;;;;0.87;0.50;;;12.20;71.70;;;;;;5058463;28;20450;-78
2022/04/24 10:58:12;;;;;;;1.47;0.70;;;12.20;1.00;;;;;;5059365;28;20485;-79
2022/04/24 11:00:41;;;;;;;0.67;0.60;;;12.00;1.00;;;;;;5055418;28;20432;-77
2022/04/24 11:03:13;;;;;;;0.70;0.57;;;12.10;99.90;;;;;;5061799;28;20438;-77
2022/04/24 11:05:44;;;;;;;0.60;0.60;;;12.20;1.00;;;;;;5060058;28;20530;-76
2022/04/24 11:08:18;;;;;;;0.50;0.50;;;12.20;1.00;;;;;;5060764;28;21146;-74
2022/04/24 11:10:48;;;;;;;1.17;0.57;;;12.10;1.00;;;;;;5058324;28;20456;-77
2022/04/24 11:13:19;;;;;;;1.03;0.60;;;12.20;1.00;;;;;;5055643;28;20839;-78
2022/04/24 11:15:49;;;;;;;0.70;0.70;;;12.10;52.60;;;;;;5057611;28;20448;-78
2022/04/24 11:18:20;;;;;;;1.70;0.70;;;12.20;99.90;;;;;;5055838;28;21029;-79
2022/04/24 11:20:56;;;;;;;1.63;0.80;;;12.40;1.00;;;;;;5062238;28;20208;-77
2022/04/24 11:23:29;;;;;;;0.57;0.50;;;12.50;1.00;;;;;;5057080;28;20447;-77
2022/04/24 11:25:58;;;;;;;0.80;0.50;;;12.60;99.90;;;;;;5062361;28;20459;-76
2022/04/24 11:28:39;;;;;;;1.50;0.60;;;12.50;99.90;;;;;;5061457;28;21030;-77
2022/04/24 11:31:16;;;;;;;0.80;0.60;;;12.50;99.90;;;;;;5060692;28;20460;-76
2022/04/24 11:33:53;;;;;;;0.50;0.50;;;12.70;99.90;;;;;;5055037;28;20204;-79
2022/04/24 11:36:22;;;;;;;2.60;0.83;;;12.80;99.90;;;;;;5065298;28;20478;-77
2022/04/24 11:38:50;;;;;;;2.30;0.60;;;12.80;99.90;;;;;;5056414;28;20539;-77
2022/04/24 11:41:20;;;;;;;0.80;0.80;;;12.80;99.90;;;;;;5060331;28;20955;-76
2022/04/24 11:43:50;;;;;;;3.00;0.60;;;12.70;99.90;;;;;;5060530;28;20484;-78
2022/04/24 11:51:53;;;;;;;0.50;0.50;;;12.70;1.00;;;;;;5060383;28;20446;-75
2022/04/24 11:54:22;;;;;;;1.60;1.03;;;12.80;1.00;;;;;;5059407;28;20953;-77
2022/04/24 11:56:51;;;;;;;1.60;1.20;;;12.60;1.00;;;;;;5055302;28;21129;-76
2022/04/24 11:59:22;;;;;;;1.17;0.60;;;12.90;1.00;;;;;;5055296;28;20466;-78
2022/04/24 12:01:58;;;;;;;1.00;0.80;;;12.70;1.00;;;;;;5059907;28;20467;-74
2022/04/24 12:04:31;;;;;;;0.73;0.70;;;12.40;99.90;;;;;;5058021;28;20969;-78
2022/04/24 12:07:05;;;;;;;1.57;1.07;;;12.40;99.90;;;;;;5059156;28;20514;-77
2022/04/24 12:09:34;;;;;;;0.60;0.60;;;12.50;99.90;;;;;;5062710;28;20484;-76
2022/04/24 12:12:08;;;;;;;1.33;0.80;;;12.60;99.90;;;;;;5068037;28;20450;-76
2022/04/24 12:14:39;;;;;;;0.60;0.60;;;12.50;99.90;;;;;;5064899;28;20456;-76
2022/04/24 12:17:08;;;;;;;0.60;0.60;;;12.50;1.00;;;;;;5064643;28;21043;-77
2022/04/24 12:19:37;;;;;;;1.67;0.70;;;12.60;99.90;;;;;;5063348;28;20535;-74
2022/04/24 12:22:07;;;;;;;0.50;0.50;;;12.40;1.00;;;;;;5064974;28;20470;-76
2022/04/24 12:24:42;;;;;;;1.03;0.70;;;12.40;99.90;;;;;;5060756;28;20439;-77
2022/04/24 12:27:13;;;;;;;0.60;0.60;;;12.50;99.90;;;;;;5067597;28;20524;-76
2022/04/24 12:29:45;;;;;;;0.80;0.60;;;12.50;99.90;;;;;;5062999;28;20568;-77
2022/04/24 12:32:14;;;;;;;0.50;0.50;;;12.60;99.90;;;;;;5060485;28;20451;-76
2022/04/24 12:34:44;;;;;;;0.50;0.50;;;12.80;1.00;;;;;;5064154;28;20832;-76
2022/04/24 12:37:14;;;;;;;0.50;0.40;;;12.60;1.00;;;;;;5066027;28;20443;-78
2022/04/24 12:39:53;;;;;;;0.67;0.63;;;12.80;58.50;;;;;;5063059;28;20476;-77
2022/04/24 12:42:21;;;;;;;0.60;0.60;;;12.80;86.80;;;;;;5058306;28;20454;-77
2022/04/24 12:44:52;;;;;;;0.60;0.60;;;12.50;1.00;;;;;;5068050;28;20495;-77
2022/04/24 12:47:21;;;;;;;0.50;0.50;;;12.60;1.00;;;;;;5059355;28;20569;-77
2022/04/24 12:49:50;;;;;;;0.40;0.40;;;12.60;99.90;;;;;;5063255;28;20546;-77
2022/04/24 12:52:21;;;;;;;0.50;0.50;;;12.80;93.70;;;;;;5059017;28;20462;-77
2022/04/24 12:54:52;;;;;;;0.70;0.60;;;13.30;1.00;;;;;;5059495;28;20451;-76
2022/04/24 12:57:20;;;;;;;0.60;0.50;;;12.90;99.90;;;;;;5059888;28;20533;-76
2022/04/24 12:59:48;;;;;;;0.70;0.60;;;13.10;99.90;;;;;;5054209;28;20459;-77
2022/04/24 13:02:19;;;;;;;0.37;0.37;;;12.80;94.40;;;;;;5060223;28;20476;-77
2022/04/24 13:04:48;;;;;;;0.40;0.40;;;12.70;99.90;;;;;;5059152;28;20570;-76